sensor_id;sensor_type;location;lat;lon;timestamp;temperature;humidity
6373;DHT22;3219;51.362;7.074;2022-08-19T01:18:31;19.50;99.90
6373;DHT22;3219;51.362;7.074;2022-08-19T06:04:09;21.00;99.90
6373;DHT22;3219;51.362;7.074;2022-08-19T06:06:36;21.80;99.90
6373;DHT22;3219;51.362;7.074;2022-08-19T06:09:06;22.50;99.90
6373;DHT22;3219;51.362;7.074;2022-08-19T06:11:35;23.40;99.90
6373;DHT22;3219;51.362;7.074;2022-08-19T06:14:04;24.60;99.90
6373;DHT22;3219;51.362;7.074;2022-08-19T06:16:34;25.80;99.90
6373;DHT22;3219;51.362;7.074;2022-08-19T06:19:02;26.80;99.90
6373;DHT22;3219;51.362;7.074;2022-08-19T06:21:30;27.70;99.90
6373;DHT22;3219;51.362;7.074;2022-08-19T06:23:58;28.60;99.90
6373;DHT22;3219;51.362;7.074;2022-08-19T06:26:26;29.10;99.90
6373;DHT22;3219;51.362;7.074;2022-08-19T06:28:53;29.70;99.90
6373;DHT22;3219;51.362;7.074;2022-08-19T06:43:53;30.40;93.50
6373;DHT22;3219;51.362;7.074;2022-08-19T06:46:20;30.40;93.60
6373;DHT22;3219;51.362;7.074;2022-08-19T06:48:48;29.80;93.70
6373;DHT22;3219;51.362;7.074;2022-08-19T06:51:16;29.20;94.80
6373;DHT22;3219;51.362;7.074;2022-08-19T06:53:44;29.00;95.20
6373;DHT22;3219;51.362;7.074;2022-08-19T06:56:13;29.40;94.90
6373;DHT22;3219;51.362;7.074;2022-08-19T06:58:40;29.90;94.70
6373;DHT22;3219;51.362;7.074;2022-08-19T07:01:09;30.40;94.10
6373;DHT22;3219;51.362;7.074;2022-08-19T07:03:37;31.20;93.40
6373;DHT22;3219;51.362;7.074;2022-08-19T07:06:06;32.00;93.70
6373;DHT22;3219;51.362;7.074;2022-08-19T07:08:35;32.90;94.40
6373;DHT22;3219;51.362;7.074;2022-08-19T07:11:07;34.30;99.90
6373;DHT22;3219;51.362;7.074;2022-08-19T07:21:03;34.10;99.90
6373;DHT22;3219;51.362;7.074;2022-08-19T07:28:25;32.40;99.90
6373;DHT22;3219;51.362;7.074;2022-08-19T07:30:52;32.10;99.90
6373;DHT22;3219;51.362;7.074;2022-08-19T07:33:19;31.70;99.90
6373;DHT22;3219;51.362;7.074;2022-08-19T07:55:33;31.20;99.90
6373;DHT22;3219;51.362;7.074;2022-08-19T07:58:00;31.50;99.90
6373;DHT22;3219;51.362;7.074;2022-08-19T08:13:30;31.60;99.90
6373;DHT22;3219;51.362;7.074;2022-08-19T08:15:58;31.60;99.90
6373;DHT22;3219;51.362;7.074;2022-08-19T08:18:25;31.20;99.90
6373;DHT22;3219;51.362;7.074;2022-08-19T08:20:52;30.60;99.90
6373;DHT22;3219;51.362;7.074;2022-08-19T08:23:20;29.90;99.90
6373;DHT22;3219;51.362;7.074;2022-08-19T08:25:52;29.50;99.90
6373;DHT22;3219;51.362;7.074;2022-08-19T08:28:20;29.20;99.90
6373;DHT22;3219;51.362;7.074;2022-08-19T08:30:48;28.70;99.90
6373;DHT22;3219;51.362;7.074;2022-08-19T08:33:17;28.40;99.90
6373;DHT22;3219;51.362;7.074;2022-08-19T08:35:45;28.20;99.90
6373;DHT22;3219;51.362;7.074;2022-08-19T08:38:12;28.10;99.90
6373;DHT22;3219;51.362;7.074;2022-08-19T08:40:44;28.00;99.90
6373;DHT22;3219;51.362;7.074;2022-08-19T08:43:21;27.90;99.90
6373;DHT22;3219;51.362;7.074;2022-08-19T08:45:55;27.90;99.90
6373;DHT22;3219;51.362;7.074;2022-08-19T08:48:27;27.90;99.90
6373;DHT22;3219;51.362;7.074;2022-08-19T08:50:57;28.00;99.90
6373;DHT22;3219;51.362;7.074;2022-08-19T08:53:25;28.10;99.90
6373;DHT22;3219;51.362;7.074;2022-08-19T08:55:54;28.10;99.90
6373;DHT22;3219;51.362;7.074;2022-08-19T08:58:27;28.20;99.90
6373;DHT22;3219;51.362;7.074;2022-08-19T09:00:56;28.10;99.90
6373;DHT22;3219;51.362;7.074;2022-08-19T09:03:24;28.20;99.90
6373;DHT22;3219;51.362;7.074;2022-08-19T09:05:59;28.30;99.90
6373;DHT22;3219;51.362;7.074;2022-08-19T09:08:36;28.50;99.90
6373;DHT22;3219;51.362;7.074;2022-08-19T09:11:10;28.70;99.90
6373;DHT22;3219;51.362;7.074;2022-08-19T09:13:44;28.80;99.90
6373;DHT22;3219;51.362;7.074;2022-08-19T09:16:16;28.90;99.90
6373;DHT22;3219;51.362;7.074;2022-08-19T09:18:47;28.70;99.90
6373;DHT22;3219;51.362;7.074;2022-08-19T09:21:17;28.70;99.90
6373;DHT22;3219;51.362;7.074;2022-08-19T09:23:44;28.60;99.90
6373;DHT22;3219;51.362;7.074;2022-08-19T09:26:14;28.40;99.90
6373;DHT22;3219;51.362;7.074;2022-08-19T09:28:41;28.20;99.90
6373;DHT22;3219;51.362;7.074;2022-08-19T09:31:09;28.00;99.90
6373;DHT22;3219;51.362;7.074;2022-08-19T09:33:36;27.90;99.90
6373;DHT22;3219;51.362;7.074;2022-08-19T09:36:06;27.90;99.90
6373;DHT22;3219;51.362;7.074;2022-08-19T09:38:33;28.00;99.90
6373;DHT22;3219;51.362;7.074;2022-08-19T09:41:04;28.00;99.90
6373;DHT22;3219;51.362;7.074;2022-08-19T09:43:33;28.10;99.90
6373;DHT22;3219;51.362;7.074;2022-08-19T09:46:02;28.20;99.90
6373;DHT22;3219;51.362;7.074;2022-08-19T09:48:31;28.20;99.90
6373;DHT22;3219;51.362;7.074;2022-08-19T09:51:03;28.30;99.90
6373;DHT22;3219;51.362;7.074;2022-08-19T10:05:49;28.40;99.90
6373;DHT22;3219;51.362;7.074;2022-08-19T10:08:17;28.70;99.90
6373;DHT22;3219;51.362;7.074;2022-08-19T10:10:45;28.50;99.90
6373;DHT22;3219;51.362;7.074;2022-08-19T10:13:13;28.50;99.90
6373;DHT22;3219;51.362;7.074;2022-08-19T10:15:41;28.20;99.90
6373;DHT22;3219;51.362;7.074;2022-08-19T10:18:09;28.10;99.90
6373;DHT22;3219;51.362;7.074;2022-08-19T10:20:36;28.00;99.90
6373;DHT22;3219;51.362;7.074;2022-08-19T10:23:03;28.00;99.90
6373;DHT22;3219;51.362;7.074;2022-08-19T10:25:32;27.90;99.90
6373;DHT22;3219;51.362;7.074;2022-08-19T10:28:00;27.70;99.90
6373;DHT22;3219;51.362;7.074;2022-08-19T10:30:27;27.80;99.90
6373;DHT22;3219;51.362;7.074;2022-08-19T10:32:54;27.80;99.90
6373;DHT22;3219;51.362;7.074;2022-08-19T10:35:22;27.70;99.90
6373;DHT22;3219;51.362;7.074;2022-08-19T10:37:52;27.60;99.90
6373;DHT22;3219;51.362;7.074;2022-08-19T10:40:18;27.50;99.90
6373;DHT22;3219;51.362;7.074;2022-08-19T10:42:45;27.50;99.90
6373;DHT22;3219;51.362;7.074;2022-08-19T10:45:12;27.40;99.90
6373;DHT22;3219;51.362;7.074;2022-08-19T10:47:39;27.50;99.90
6373;DHT22;3219;51.362;7.074;2022-08-19T10:50:07;27.60;99.90
6373;DHT22;3219;51.362;7.074;2022-08-19T10:52:52;27.50;99.90
6373;DHT22;3219;51.362;7.074;2022-08-19T10:55:21;27.60;99.90
6373;DHT22;3219;51.362;7.074;2022-08-19T10:58:10;27.70;99.90
6373;DHT22;3219;51.362;7.074;2022-08-19T11:03:06;27.50;99.90
6373;DHT22;3219;51.362;7.074;2022-08-19T11:05:33;27.60;99.90
6373;DHT22;3219;51.362;7.074;2022-08-19T11:08:01;27.60;99.90
6373;DHT22;3219;51.362;7.074;2022-08-19T11:10:28;27.80;99.90
6373;DHT22;3219;51.362;7.074;2022-08-19T11:12:55;28.00;99.90
6373;DHT22;3219;51.362;7.074;2022-08-19T11:15:22;28.20;99.90
6373;DHT22;3219;51.362;7.074;2022-08-19T11:17:51;28.30;99.90
6373;DHT22;3219;51.362;7.074;2022-08-19T11:20:19;28.40;99.90
6373;DHT22;3219;51.362;7.074;2022-08-19T11:22:46;28.60;99.90
6373;DHT22;3219;51.362;7.074;2022-08-19T11:25:15;28.60;99.90
6373;DHT22;3219;51.362;7.074;2022-08-19T11:27:42;28.60;99.90
6373;DHT22;3219;51.362;7.074;2022-08-19T11:30:12;28.30;99.90
6373;DHT22;3219;51.362;7.074;2022-08-19T11:32:41;28.00;99.90
6373;DHT22;3219;51.362;7.074;2022-08-19T11:37:36;27.40;99.90
6373;DHT22;3219;51.362;7.074;2022-08-19T11:40:05;27.20;99.90
6373;DHT22;3219;51.362;7.074;2022-08-19T11:42:33;27.10;99.90
6373;DHT22;3219;51.362;7.074;2022-08-19T11:45:18;26.90;99.90
6373;DHT22;3219;51.362;7.074;2022-08-19T11:47:45;26.80;99.90
6373;DHT22;3219;51.362;7.074;2022-08-19T11:50:12;26.70;99.90
6373;DHT22;3219;51.362;7.074;2022-08-19T11:52:39;26.50;99.90
6373;DHT22;3219;51.362;7.074;2022-08-19T11:55:07;26.50;99.90
6373;DHT22;3219;51.362;7.074;2022-08-19T11:57:36;26.50;99.90
6373;DHT22;3219;51.362;7.074;2022-08-19T12:00:04;26.50;99.90
6373;DHT22;3219;51.362;7.074;2022-08-19T12:02:31;26.50;99.90
6373;DHT22;3219;51.362;7.074;2022-08-19T12:04:58;26.50;99.90
6373;DHT22;3219;51.362;7.074;2022-08-19T12:07:28;26.60;99.90
6373;DHT22;3219;51.362;7.074;2022-08-19T12:09:57;26.70;99.90
6373;DHT22;3219;51.362;7.074;2022-08-19T12:12:23;26.60;99.90
6373;DHT22;3219;51.362;7.074;2022-08-19T12:14:53;26.60;99.90
6373;DHT22;3219;51.362;7.074;2022-08-19T12:17:23;26.60;99.90
6373;DHT22;3219;51.362;7.074;2022-08-19T12:19:51;26.50;99.90
6373;DHT22;3219;51.362;7.074;2022-08-19T12:22:17;26.50;99.90
6373;DHT22;3219;51.362;7.074;2022-08-19T12:24:46;26.60;99.90
6373;DHT22;3219;51.362;7.074;2022-08-19T12:27:13;26.60;99.90
6373;DHT22;3219;51.362;7.074;2022-08-19T12:29:40;26.50;99.90
6373;DHT22;3219;51.362;7.074;2022-08-19T12:32:09;26.50;99.90
6373;DHT22;3219;51.362;7.074;2022-08-19T12:34:35;26.60;99.90
6373;DHT22;3219;51.362;7.074;2022-08-19T12:37:04;26.60;99.90
6373;DHT22;3219;51.362;7.074;2022-08-19T12:39:34;26.60;99.90
6373;DHT22;3219;51.362;7.074;2022-08-19T12:42:01;26.70;99.90
6373;DHT22;3219;51.362;7.074;2022-08-19T12:44:28;26.80;99.90
6373;DHT22;3219;51.362;7.074;2022-08-19T12:46:56;26.90;99.90
6373;DHT22;3219;51.362;7.074;2022-08-19T12:49:24;27.00;99.90
6373;DHT22;3219;51.362;7.074;2022-08-19T12:51:51;26.90;99.90
6373;DHT22;3219;51.362;7.074;2022-08-19T12:54:18;26.80;99.90
6373;DHT22;3219;51.362;7.074;2022-08-19T12:56:45;26.70;99.90
6373;DHT22;3219;51.362;7.074;2022-08-19T12:59:12;26.80;99.90
6373;DHT22;3219;51.362;7.074;2022-08-19T13:01:43;26.90;99.90
6373;DHT22;3219;51.362;7.074;2022-08-19T13:04:10;27.00;99.90
6373;DHT22;3219;51.362;7.074;2022-08-19T13:06:39;27.00;99.90
6373;DHT22;3219;51.362;7.074;2022-08-19T13:09:06;26.90;99.90
6373;DHT22;3219;51.362;7.074;2022-08-19T13:11:33;26.90;99.90
6373;DHT22;3219;51.362;7.074;2022-08-19T13:14:01;26.80;99.90
6373;DHT22;3219;51.362;7.074;2022-08-19T13:16:28;26.80;99.90
6373;DHT22;3219;51.362;7.074;2022-08-19T13:18:56;26.70;99.90
6373;DHT22;3219;51.362;7.074;2022-08-19T13:21:25;26.70;99.90
6373;DHT22;3219;51.362;7.074;2022-08-19T13:23:54;26.60;99.90
6373;DHT22;3219;51.362;7.074;2022-08-19T13:26:21;26.60;99.90
6373;DHT22;3219;51.362;7.074;2022-08-19T13:28:48;26.60;99.90
6373;DHT22;3219;51.362;7.074;2022-08-19T13:31:35;26.60;99.90
6373;DHT22;3219;51.362;7.074;2022-08-19T13:34:28;26.70;99.90
6373;DHT22;3219;51.362;7.074;2022-08-19T13:36:55;26.70;99.90
6373;DHT22;3219;51.362;7.074;2022-08-19T13:39:23;26.80;99.90
6373;DHT22;3219;51.362;7.074;2022-08-19T13:41:51;26.90;99.90
6373;DHT22;3219;51.362;7.074;2022-08-19T13:44:18;27.00;99.90
6373;DHT22;3219;51.362;7.074;2022-08-19T13:46:46;27.10;99.90
6373;DHT22;3219;51.362;7.074;2022-08-19T13:49:15;27.30;99.90
6373;DHT22;3219;51.362;7.074;2022-08-19T13:51:42;27.30;99.90
6373;DHT22;3219;51.362;7.074;2022-08-19T13:54:10;27.30;99.90
6373;DHT22;3219;51.362;7.074;2022-08-19T13:56:41;27.30;99.90
6373;DHT22;3219;51.362;7.074;2022-08-19T13:59:09;27.20;99.90
6373;DHT22;3219;51.362;7.074;2022-08-19T14:01:36;27.00;99.90
6373;DHT22;3219;51.362;7.074;2022-08-19T14:04:03;26.80;99.90
6373;DHT22;3219;51.362;7.074;2022-08-19T14:06:31;26.80;99.90
6373;DHT22;3219;51.362;7.074;2022-08-19T14:08:58;26.70;99.90
6373;DHT22;3219;51.362;7.074;2022-08-19T14:11:25;26.40;99.90
6373;DHT22;3219;51.362;7.074;2022-08-19T14:13:54;26.60;99.90
6373;DHT22;3219;51.362;7.074;2022-08-19T14:16:20;26.40;99.90
6373;DHT22;3219;51.362;7.074;2022-08-19T14:18:48;26.40;99.90
6373;DHT22;3219;51.362;7.074;2022-08-19T14:21:16;26.50;99.90
6373;DHT22;3219;51.362;7.074;2022-08-19T14:23:43;26.50;99.90
6373;DHT22;3219;51.362;7.074;2022-08-19T14:26:12;26.50;99.90
6373;DHT22;3219;51.362;7.074;2022-08-19T14:28:40;26.60;99.90
6373;DHT22;3219;51.362;7.074;2022-08-19T14:31:08;26.50;99.90
6373;DHT22;3219;51.362;7.074;2022-08-19T14:33:35;26.50;99.90
6373;DHT22;3219;51.362;7.074;2022-08-19T14:36:03;26.50;99.90
6373;DHT22;3219;51.362;7.074;2022-08-19T14:38:30;26.50;99.90
6373;DHT22;3219;51.362;7.074;2022-08-19T14:41:06;26.60;99.90
6373;DHT22;3219;51.362;7.074;2022-08-19T14:48:30;26.50;99.90
6373;DHT22;3219;51.362;7.074;2022-08-19T14:50:57;26.70;99.90
6373;DHT22;3219;51.362;7.074;2022-08-19T14:53:23;26.70;99.90
6373;DHT22;3219;51.362;7.074;2022-08-19T14:55:51;26.60;99.90
6373;DHT22;3219;51.362;7.074;2022-08-19T14:58:17;26.60;99.90
6373;DHT22;3219;51.362;7.074;2022-08-19T15:00:44;26.70;99.90
6373;DHT22;3219;51.362;7.074;2022-08-19T15:03:11;26.60;99.90
6373;DHT22;3219;51.362;7.074;2022-08-19T15:05:39;26.60;99.90
6373;DHT22;3219;51.362;7.074;2022-08-19T15:08:06;26.60;99.90
6373;DHT22;3219;51.362;7.074;2022-08-19T15:10:33;26.70;99.90
6373;DHT22;3219;51.362;7.074;2022-08-19T15:13:00;26.70;99.90
6373;DHT22;3219;51.362;7.074;2022-08-19T15:15:27;26.80;99.90
6373;DHT22;3219;51.362;7.074;2022-08-19T15:17:53;26.80;99.90
6373;DHT22;3219;51.362;7.074;2022-08-19T15:20:21;26.80;99.90
6373;DHT22;3219;51.362;7.074;2022-08-19T15:35:14;26.80;99.90
6373;DHT22;3219;51.362;7.074;2022-08-19T15:37:44;27.00;99.90
6373;DHT22;3219;51.362;7.074;2022-08-19T15:40:12;27.10;99.90
6373;DHT22;3219;51.362;7.074;2022-08-19T15:42:39;27.10;99.90
6373;DHT22;3219;51.362;7.074;2022-08-19T15:45:08;27.00;99.90
6373;DHT22;3219;51.362;7.074;2022-08-19T15:47:36;27.10;99.90
6373;DHT22;3219;51.362;7.074;2022-08-19T15:50:05;26.90;99.90
6373;DHT22;3219;51.362;7.074;2022-08-19T15:52:32;26.80;99.90
6373;DHT22;3219;51.362;7.074;2022-08-19T15:54:59;26.80;99.90
6373;DHT22;3219;51.362;7.074;2022-08-19T15:57:27;26.70;99.90
6373;DHT22;3219;51.362;7.074;2022-08-19T16:00:11;26.70;99.90
6373;DHT22;3219;51.362;7.074;2022-08-19T16:02:56;26.40;99.90
6373;DHT22;3219;51.362;7.074;2022-08-19T16:05:39;26.60;99.90
6373;DHT22;3219;51.362;7.074;2022-08-19T16:08:23;26.50;99.90
6373;DHT22;3219;51.362;7.074;2022-08-19T16:10:50;26.60;99.90
6373;DHT22;3219;51.362;7.074;2022-08-19T16:13:18;26.40;99.90
6373;DHT22;3219;51.362;7.074;2022-08-19T16:15:45;26.40;99.90
6373;DHT22;3219;51.362;7.074;2022-08-19T16:18:12;26.40;99.90
6373;DHT22;3219;51.362;7.074;2022-08-19T16:20:39;26.40;99.90
6373;DHT22;3219;51.362;7.074;2022-08-19T16:23:08;26.30;99.90
6373;DHT22;3219;51.362;7.074;2022-08-19T16:30:32;26.20;99.90
6373;DHT22;3219;51.362;7.074;2022-08-19T16:32:59;26.20;99.90
6373;DHT22;3219;51.362;7.074;2022-08-19T16:35:26;26.20;99.90
6373;DHT22;3219;51.362;7.074;2022-08-19T16:37:53;26.20;99.90
6373;DHT22;3219;51.362;7.074;2022-08-19T16:40:19;26.20;99.90
6373;DHT22;3219;51.362;7.074;2022-08-19T16:47:48;26.00;99.90
6373;DHT22;3219;51.362;7.074;2022-08-19T16:50:15;26.30;99.80
6373;DHT22;3219;51.362;7.074;2022-08-19T16:52:42;26.20;99.90
6373;DHT22;3219;51.362;7.074;2022-08-19T16:55:12;26.20;99.90
6373;DHT22;3219;51.362;7.074;2022-08-19T16:57:39;26.10;99.90
6373;DHT22;3219;51.362;7.074;2022-08-19T17:00:07;26.00;99.90
6373;DHT22;3219;51.362;7.074;2022-08-19T17:02:35;25.80;99.90
6373;DHT22;3219;51.362;7.074;2022-08-19T17:05:06;25.70;99.90
6373;DHT22;3219;51.362;7.074;2022-08-19T17:07:33;25.60;99.90
6373;DHT22;3219;51.362;7.074;2022-08-19T17:10:01;25.50;99.90
6373;DHT22;3219;51.362;7.074;2022-08-19T17:12:28;25.30;99.90
6373;DHT22;3219;51.362;7.074;2022-08-19T17:14:55;25.30;99.90
6373;DHT22;3219;51.362;7.074;2022-08-19T17:17:22;25.20;99.90
6373;DHT22;3219;51.362;7.074;2022-08-19T17:19:49;25.10;99.90
6373;DHT22;3219;51.362;7.074;2022-08-19T17:22:19;25.10;99.90
6373;DHT22;3219;51.362;7.074;2022-08-19T17:24:46;25.10;99.90
6373;DHT22;3219;51.362;7.074;2022-08-19T17:27:13;25.00;99.90
6373;DHT22;3219;51.362;7.074;2022-08-19T17:29:39;25.00;99.90
6373;DHT22;3219;51.362;7.074;2022-08-19T17:32:06;25.00;99.90
6373;DHT22;3219;51.362;7.074;2022-08-19T17:34:34;25.00;99.90
6373;DHT22;3219;51.362;7.074;2022-08-19T17:37:01;24.90;99.90
6373;DHT22;3219;51.362;7.074;2022-08-19T17:39:29;24.90;99.90
6373;DHT22;3219;51.362;7.074;2022-08-19T17:41:56;24.90;99.90
6373;DHT22;3219;51.362;7.074;2022-08-19T17:44:23;25.00;99.90
6373;DHT22;3219;51.362;7.074;2022-08-19T17:46:49;25.00;99.90
6373;DHT22;3219;51.362;7.074;2022-08-19T17:49:17;25.00;99.90
6373;DHT22;3219;51.362;7.074;2022-08-19T17:51:45;25.00;99.90
6373;DHT22;3219;51.362;7.074;2022-08-19T17:54:15;25.10;99.90
6373;DHT22;3219;51.362;7.074;2022-08-19T17:56:44;25.10;99.90
6373;DHT22;3219;51.362;7.074;2022-08-19T17:59:11;25.10;99.90
6373;DHT22;3219;51.362;7.074;2022-08-19T18:01:38;25.10;99.90
6373;DHT22;3219;51.362;7.074;2022-08-19T18:04:05;25.10;99.90
6373;DHT22;3219;51.362;7.074;2022-08-19T18:06:32;25.00;99.90
6373;DHT22;3219;51.362;7.074;2022-08-19T18:09:01;24.90;99.90
6373;DHT22;3219;51.362;7.074;2022-08-19T18:11:28;24.90;99.90
6373;DHT22;3219;51.362;7.074;2022-08-19T18:13:56;24.80;99.90
6373;DHT22;3219;51.362;7.074;2022-08-19T18:16:23;24.70;99.90
6373;DHT22;3219;51.362;7.074;2022-08-19T18:18:50;24.60;99.90
6373;DHT22;3219;51.362;7.074;2022-08-19T18:21:19;24.50;99.90
6373;DHT22;3219;51.362;7.074;2022-08-19T18:23:46;24.40;99.90
6373;DHT22;3219;51.362;7.074;2022-08-19T18:26:14;24.40;99.90
6373;DHT22;3219;51.362;7.074;2022-08-19T18:28:40;24.20;99.90
6373;DHT22;3219;51.362;7.074;2022-08-19T18:31:09;24.20;99.90
